Time;durP1;ratioP1;P1;durP2;ratioP2;P2;SDS_P1;SDS_P2;PMS_P1;PMS_P2;Temp;Humidity;BMP_temperature;BMP_pressure;BME280_temperature;BME280_humidity;BME280_pressure;Samples;Min_cycle;Max_cycle;Signal;HPM_P1;HPM_P2
2022/04/28 00:00:32;;;;;;;31.82;16.67;;;;;;;;;;4235718;82;28524;-81
2022/04/28 00:06:34;;;;;;;27.55;15.15;;;;;;;;;;4237784;82;28526;-81
2022/04/28 00:12:36;;;;;;;28.00;15.50;;;;;;;;;;4236787;84;28486;-81
2022/04/28 00:18:37;;;;;;;28.12;15.15;;;;;;;;;;4238341;82;28517;-81
2022/04/28 00:24:37;;;;;;;30.40;16.50;;;;;;;;;;4237471;84;28513;-81
2022/04/28 00:30:38;;;;;;;31.33;16.55;;;;;;;;;;4235825;82;28545;-78
2022/04/28 00:36:39;;;;;;;29.20;16.82;;;;;;;;;;4237402;82;28500;-78
2022/04/28 00:42:40;;;;;;;28.17;15.88;;;;;;;;;;4229771;83;28518;-78
2022/04/28 00:55:00;;;;;;;27.25;15.18;;;;;;;;;;4236527;82;28543;-78
2022/04/28 01:01:02;;;;;;;38.20;20.97;;;;;;;;;;4238582;82;28561;-78
2022/04/28 01:07:04;;;;;;;32.93;17.77;;;;;;;;;;4237873;82;28526;-78
2022/04/28 01:13:05;;;;;;;30.40;16.97;;;;;;;;;;4212182;82;28509;-78
2022/04/28 01:19:07;;;;;;;29.52;17.17;;;;;;;;;;4237056;83;28627;-78
2022/04/28 01:25:09;;;;;;;31.10;17.65;;;;;;;;;;4236968;82;28521;-77
2022/04/28 01:31:10;;;;;;;28.05;16.15;;;;;;;;;;4237072;82;28465;-77
2022/04/28 01:37:21;;;;;;;29.60;16.67;;;;;;;;;;4238132;82;28489;-78
2022/04/28 01:43:24;;;;;;;33.20;17.62;;;;;;;;;;4209863;82;28534;-77
2022/04/28 01:49:25;;;;;;;32.78;18.45;;;;;;;;;;4222049;83;28497;-77
2022/04/28 01:55:43;;;;;;;30.00;18.67;;;;;;;;;;4220092;84;28547;-79
2022/04/28 02:01:52;;;;;;;32.33;16.60;;;;;;;;;;4232727;83;28509;-79
2022/04/28 02:07:53;;;;;;;31.77;16.90;;;;;;;;;;4214408;83;28546;-80
2022/04/28 02:13:53;;;;;;;31.17;16.12;;;;;;;;;;4209165;84;28590;-80
2022/04/28 02:20:01;;;;;;;35.50;18.48;;;;;;;;;;4212360;83;28487;-80
2022/04/28 02:26:02;;;;;;;30.37;17.50;;;;;;;;;;4206177;84;28479;-81
2022/04/28 02:32:03;;;;;;;34.38;19.25;;;;;;;;;;4211182;83;28491;-80
2022/04/28 02:38:04;;;;;;;27.95;16.52;;;;;;;;;;4215515;83;28518;-81
2022/04/28 02:44:06;;;;;;;32.30;17.27;;;;;;;;;;4215710;83;28606;-79
2022/04/28 02:50:11;;;;;;;34.08;16.73;;;;;;;;;;4209850;84;28493;-79
2022/04/28 02:56:12;;;;;;;35.58;19.77;;;;;;;;;;4214636;83;28557;-79
2022/04/28 03:02:12;;;;;;;36.58;19.45;;;;;;;;;;4213937;84;28522;-79
2022/04/28 03:14:33;;;;;;;36.85;19.70;;;;;;;;;;4214437;83;28506;-81
2022/04/28 03:20:34;;;;;;;37.60;20.85;;;;;;;;;;4216564;84;28506;-81
2022/04/28 03:26:39;;;;;;;33.15;18.17;;;;;;;;;;4211623;84;28530;-81
2022/04/28 03:32:42;;;;;;;39.55;22.13;;;;;;;;;;4213638;83;28476;-82
2022/04/28 03:38:44;;;;;;;39.83;19.82;;;;;;;;;;4216010;84;28483;-82
2022/04/28 03:44:45;;;;;;;32.80;19.70;;;;;;;;;;4214339;83;28529;-81
2022/04/28 03:50:46;;;;;;;34.58;18.95;;;;;;;;;;4214911;84;28525;-83
2022/04/28 03:56:47;;;;;;;31.40;18.10;;;;;;;;;;4214988;84;28475;-83
2022/04/28 04:02:49;;;;;;;35.08;18.67;;;;;;;;;;4194000;83;28583;-82
2022/04/28 04:08:51;;;;;;;35.35;18.95;;;;;;;;;;4217055;83;28574;-81
2022/04/28 04:14:52;;;;;;;37.20;20.12;;;;;;;;;;4202004;83;28518;-81
2022/04/28 04:20:54;;;;;;;41.58;21.27;;;;;;;;;;4213743;83;28511;-81
2022/04/28 04:26:54;;;;;;;38.48;20.88;;;;;;;;;;4214775;84;28451;-81
2022/04/28 04:32:57;;;;;;;38.45;21.00;;;;;;;;;;4217036;83;28529;-83
2022/04/28 04:38:59;;;;;;;41.65;21.40;;;;;;;;;;4215754;83;28534;-83
2022/04/28 04:45:03;;;;;;;43.42;22.90;;;;;;;;;;4211407;83;28507;-81
2022/04/28 04:51:06;;;;;;;43.45;23.25;;;;;;;;;;4216627;83;28530;-82
2022/04/28 04:57:11;;;;;;;42.10;23.02;;;;;;;;;;4219932;83;43779;-75
2022/04/28 05:03:13;;;;;;;42.13;22.82;;;;;;;;;;4212907;83;28495;-85
2022/04/28 05:09:32;;;;;;;36.95;20.75;;;;;;;;;;4241239;82;28491;-82
2022/04/28 05:15:33;;;;;;;32.05;18.90;;;;;;;;;;4234655;82;28560;-85
2022/04/28 05:21:39;;;;;;;37.88;19.90;;;;;;;;;;4240234;83;28549;-79
2022/04/28 05:27:45;;;;;;;36.23;20.07;;;;;;;;;;4222869;84;28507;-75
2022/04/28 05:34:04;;;;;;;33.48;18.35;;;;;;;;;;4221530;84;28534;-75
2022/04/28 05:40:15;;;;;;;35.55;19.12;;;;;;;;;;4233036;84;28507;-80
2022/04/28 05:46:16;;;;;;;34.73;18.60;;;;;;;;;;4240239;84;28528;-80
2022/04/28 05:52:17;;;;;;;33.10;17.07;;;;;;;;;;4225904;82;28492;-81
2022/04/28 05:58:18;;;;;;;33.40;17.67;;;;;;;;;;4238546;82;28508;-79
2022/04/28 06:04:21;;;;;;;34.85;20.32;;;;;;;;;;4222279;83;28546;-80
2022/04/28 06:10:24;;;;;;;33.28;19.73;;;;;;;;;;4219286;84;28522;-81
2022/04/28 06:16:26;;;;;;;31.73;17.75;;;;;;;;;;4219824;84;28463;-81
2022/04/28 06:22:46;;;;;;;30.27;16.70;;;;;;;;;;4201438;84;28499;-82
2022/04/28 06:28:48;;;;;;;28.50;16.30;;;;;;;;;;4207475;84;28459;-81
2022/04/28 06:34:50;;;;;;;26.60;14.03;;;;;;;;;;4209612;83;28476;-80
2022/04/28 06:40:52;;;;;;;24.32;14.10;;;;;;;;;;4187041;84;28450;-77
2022/04/28 06:46:54;;;;;;;28.27;15.75;;;;;;;;;;4217429;84;28572;-76
2022/04/28 06:53:11;;;;;;;26.07;14.93;;;;;;;;;;4214505;84;28546;-78
2022/04/28 06:59:12;;;;;;;22.55;14.03;;;;;;;;;;4195898;83;28482;-79
2022/04/28 07:05:15;;;;;;;24.90;12.70;;;;;;;;;;4213525;83;28572;-79
2022/04/28 07:11:16;;;;;;;23.67;12.78;;;;;;;;;;4216367;83;28549;-78
2022/04/28 07:17:18;;;;;;;18.55;10.00;;;;;;;;;;4216220;83;28519;-78
2022/04/28 07:23:21;;;;;;;16.50;8.80;;;;;;;;;;4214096;84;28493;-80
2022/04/28 07:29:22;;;;;;;19.02;10.13;;;;;;;;;;4214280;83;28553;-79
2022/04/28 07:35:31;;;;;;;16.52;8.93;;;;;;;;;;4202461;83;28456;-79
2022/04/28 07:41:40;;;;;;;13.43;8.13;;;;;;;;;;4211018;83;28483;-79
2022/04/28 07:47:41;;;;;;;14.73;8.13;;;;;;;;;;4216476;84;28558;-80
2022/04/28 07:53:44;;;;;;;14.45;7.92;;;;;;;;;;4215578;83;28565;-79
2022/04/28 07:59:46;;;;;;;11.05;5.92;;;;;;;;;;4214827;84;28506;-80
2022/04/28 08:05:48;;;;;;;6.70;4.55;;;;;;;;;;4220456;82;28498;-80
2022/04/28 08:11:49;;;;;;;6.85;4.17;;;;;;;;;;4239051;83;28494;-80
2022/04/28 08:17:51;;;;;;;9.48;5.15;;;;;;;;;;4240288;84;28567;-79
2022/04/28 08:23:53;;;;;;;6.72;4.37;;;;;;;;;;4239784;83;28455;-81
2022/04/28 08:29:55;;;;;;;7.10;4.47;;;;;;;;;;4227667;84;28545;-79
2022/04/28 08:35:57;;;;;;;9.43;4.65;;;;;;;;;;4226629;82;28486;-79
2022/04/28 08:42:00;;;;;;;6.62;4.65;;;;;;;;;;4238608;83;28545;-80
2022/04/28 08:48:11;;;;;;;8.53;4.67;;;;;;;;;;4232217;84;28529;-80
2022/04/28 08:54:25;;;;;;;6.78;4.00;;;;;;;;;;4239713;82;28584;-80
2022/04/28 09:00:26;;;;;;;7.92;4.12;;;;;;;;;;4239157;82;28605;-79
2022/04/28 09:06:47;;;;;;;4.28;3.08;;;;;;;;;;4240269;83;28475;-79
2022/04/28 09:12:57;;;;;;;7.15;3.75;;;;;;;;;;4230160;83;28529;-78
2022/04/28 09:19:00;;;;;;;6.20;3.72;;;;;;;;;;4236062;82;28511;-79
2022/04/28 09:25:01;;;;;;;7.92;3.92;;;;;;;;;;4239820;82;28546;-78
2022/04/28 09:31:05;;;;;;;7.22;3.52;;;;;;;;;;4242517;82;28518;-79
2022/04/28 09:37:19;;;;;;;;;;;;;;;;;;4232949;82;28498;-79
2022/04/28 09:43:20;;;;;;;5.55;3.60;;;;;;;;;;4242917;82;20339;-80
2022/04/28 09:49:22;;;;;;;5.78;3.45;;;;;;;;;;4210909;84;28510;-80
2022/04/28 09:55:25;;;;;;;5.33;3.00;;;;;;;;;;4222878;84;28609;-80
2022/04/28 10:01:45;;;;;;;5.45;3.08;;;;;;;;;;4230374;82;28575;-79
2022/04/28 10:07:50;;;;;;;3.92;2.58;;;;;;;;;;4236933;82;28522;-80
2022/04/28 10:13:52;;;;;;;5.03;2.62;;;;;;;;;;4238478;82;28510;-79
2022/04/28 10:19:56;;;;;;;3.27;2.42;;;;;;;;;;4239539;82;28537;-80
2022/04/28 10:32:40;;;;;;;6.17;2.33;;;;;;;;;;4236186;83;28562;-80
2022/04/28 10:38:44;;;;;;;4.75;2.92;;;;;;;;;;4237021;82;28507;-79
2022/04/28 10:44:55;;;;;;;5.97;2.70;;;;;;;;;;4230915;82;28502;-80
2022/04/28 10:50:58;;;;;;;3.37;2.17;;;;;;;;;;4229262;84;28487;-76
2022/04/28 10:57:01;;;;;;;3.83;2.50;;;;;;;;;;4235435;82;28518;-77
2022/04/28 11:03:02;;;;;;;4.20;2.42;;;;;;;;;;4241324;82;28498;-79
2022/04/28 11:09:04;;;;;;;4.87;2.35;;;;;;;;;;4241815;83;28549;-79
2022/04/28 11:15:08;;;;;;;3.85;2.27;;;;;;;;;;4224082;84;28572;-79
2022/04/28 11:21:11;;;;;;;3.55;2.25;;;;;;;;;;4245358;82;28511;-79
2022/04/28 11:27:22;;;;;;;4.47;2.67;;;;;;;;;;4237748;83;28487;-79
2022/04/28 11:33:24;;;;;;;4.95;2.52;;;;;;;;;;4225785;84;28549;-79
2022/04/28 11:39:25;;;;;;;3.65;2.00;;;;;;;;;;4226955;84;28483;-79
2022/04/28 11:45:29;;;;;;;3.83;2.58;;;;;;;;;;4238961;83;28501;-79
2022/04/28 11:51:31;;;;;;;4.50;2.45;;;;;;;;;;4224049;84;28548;-79
2022/04/28 11:57:33;;;;;;;3.75;2.37;;;;;;;;;;4241551;82;28518;-77
2022/04/28 12:03:34;;;;;;;2.60;2.00;;;;;;;;;;4243140;84;28890;-77
2022/04/28 12:15:56;;;;;;;6.83;3.37;;;;;;;;;;4219212;84;28534;-78
2022/04/28 12:22:02;;;;;;;3.42;1.90;;;;;;;;;;4219192;84;28596;-78
2022/04/28 12:28:04;;;;;;;4.15;1.98;;;;;;;;;;4199459;84;28538;-78
2022/04/28 12:34:12;;;;;;;3.30;2.20;;;;;;;;;;4198950;84;28493;-78
2022/04/28 12:40:15;;;;;;;3.72;2.45;;;;;;;;;;4193216;84;28499;-79
2022/04/28 12:46:33;;;;;;;3.22;1.95;;;;;;;;;;4215424;83;28525;-78
2022/04/28 12:52:34;;;;;;;3.87;2.22;;;;;;;;;;4217961;84;28522;-79
2022/04/28 12:58:45;;;;;;;3.60;2.00;;;;;;;;;;4221307;83;28511;-79
2022/04/28 13:04:46;;;;;;;3.75;1.90;;;;;;;;;;4217192;84;28487;-78
2022/04/28 13:10:47;;;;;;;3.77;1.95;;;;;;;;;;4236744;83;28563;-79
2022/04/28 13:16:50;;;;;;;2.50;1.72;;;;;;;;;;4242718;82;28550;-79
2022/04/28 13:22:51;;;;;;;4.75;1.87;;;;;;;;;;4244313;82;28498;-77
2022/04/28 13:28:52;;;;;;;2.83;1.70;;;;;;;;;;4244303;84;28499;-79
2022/04/28 13:34:53;;;;;;;5.22;2.25;;;;;;;;;;4239879;83;28533;-79
2022/04/28 13:40:54;;;;;;;3.90;1.72;;;;;;;;;;4226358;83;28480;-78
2022/04/28 13:46:55;;;;;;;4.55;2.10;;;;;;;;;;4226641;83;28533;-77
2022/04/28 13:52:55;;;;;;;3.98;1.90;;;;;;;;;;4244263;83;28508;-78
2022/04/28 13:58:56;;;;;;;3.27;2.17;;;;;;;;;;4240238;84;28505;-78
2022/04/28 14:04:57;;;;;;;4.75;2.25;;;;;;;;;;4241893;84;28595;-78
2022/04/28 14:10:59;;;;;;;4.70;2.10;;;;;;;;;;4241976;82;28496;-79
2022/04/28 14:17:00;;;;;;;3.77;2.12;;;;;;;;;;4237241;83;28527;-77
2022/04/28 14:23:01;;;;;;;6.12;2.58;;;;;;;;;;4244550;84;28482;-79
2022/04/28 14:29:03;;;;;;;5.12;2.50;;;;;;;;;;4240217;83;28526;-79
2022/04/28 14:35:06;;;;;;;5.72;2.70;;;;;;;;;;4223416;84;28582;-79
2022/04/28 14:41:06;;;;;;;4.53;2.42;;;;;;;;;;4237746;83;28641;-78
2022/04/28 14:47:07;;;;;;;3.83;2.50;;;;;;;;;;4226174;83;28459;-79
2022/04/28 14:53:09;;;;;;;3.70;2.10;;;;;;;;;;4243526;82;28644;-79
2022/04/28 14:59:10;;;;;;;4.85;2.15;;;;;;;;;;4233754;82;28565;-79
2022/04/28 15:05:12;;;;;;;4.33;2.15;;;;;;;;;;4238929;82;28525;-78
2022/04/28 15:11:13;;;;;;;3.25;1.92;;;;;;;;;;4224342;83;28530;-78
2022/04/28 15:17:14;;;;;;;7.97;2.08;;;;;;;;;;4215374;84;28577;-79
2022/04/28 15:23:15;;;;;;;5.17;2.50;;;;;;;;;;4205973;84;28522;-82
2022/04/28 15:29:17;;;;;;;5.72;2.47;;;;;;;;;;4208156;83;28548;-82
2022/04/28 15:35:18;;;;;;;4.67;2.15;;;;;;;;;;4202808;83;28561;-82
2022/04/28 15:41:19;;;;;;;3.47;2.20;;;;;;;;;;4215311;83;28482;-81
2022/04/28 15:47:20;;;;;;;3.55;2.20;;;;;;;;;;4217743;83;28465;-78
2022/04/28 15:53:21;;;;;;;3.60;2.60;;;;;;;;;;4200853;84;28533;-77
2022/04/28 15:59:22;;;;;;;4.33;2.50;;;;;;;;;;4212815;83;28503;-77
2022/04/28 16:05:23;;;;;;;4.45;2.95;;;;;;;;;;4215997;83;28573;-77
2022/04/28 16:11:24;;;;;;;5.42;2.62;;;;;;;;;;4211716;83;28521;-77
2022/04/28 16:17:27;;;;;;;7.08;2.70;;;;;;;;;;4194979;84;28538;-78
2022/04/28 16:23:28;;;;;;;5.03;2.25;;;;;;;;;;4216720;83;28459;-80
2022/04/28 16:29:29;;;;;;;6.45;2.70;;;;;;;;;;4211718;83;28503;-80
2022/04/28 16:35:30;;;;;;;2.92;2.50;;;;;;;;;;4208169;84;28518;-81
2022/04/28 16:41:32;;;;;;;4.00;2.70;;;;;;;;;;4209321;83;28534;-79
2022/04/28 16:47:32;;;;;;;4.87;2.75;;;;;;;;;;4216084;83;28537;-77
2022/04/28 16:53:34;;;;;;;5.25;2.98;;;;;;;;;;4209727;83;28551;-78
2022/04/28 16:59:35;;;;;;;5.30;2.67;;;;;;;;;;4215590;83;28616;-78
2022/04/28 17:05:36;;;;;;;4.83;2.72;;;;;;;;;;4201339;83;28522;-77
2022/04/28 17:11:38;;;;;;;4.65;3.20;;;;;;;;;;4234011;83;28541;-78
2022/04/28 17:17:39;;;;;;;4.10;2.90;;;;;;;;;;4242182;82;28541;-77
2022/04/28 17:23:40;;;;;;;3.95;2.87;;;;;;;;;;4237715;82;28528;-78
2022/04/28 17:29:41;;;;;;;4.87;3.37;;;;;;;;;;4233267;83;28531;-77
2022/04/28 17:35:43;;;;;;;5.97;3.40;;;;;;;;;;4240296;83;28521;-78
2022/04/28 17:41:46;;;;;;;6.47;3.50;;;;;;;;;;4239057;82;28607;-77
2022/04/28 17:47:47;;;;;;;4.78;3.22;;;;;;;;;;4234799;82;28580;-77
2022/04/28 17:53:53;;;;;;;6.60;3.87;;;;;;;;;;4239676;82;28547;-76
2022/04/28 17:59:56;;;;;;;6.95;3.70;;;;;;;;;;4205642;82;28580;-76
2022/04/28 18:06:01;;;;;;;7.25;3.70;;;;;;;;;;4235814;82;28485;-79
2022/04/28 18:12:03;;;;;;;7.70;4.03;;;;;;;;;;4236649;82;28553;-77
2022/04/28 18:18:03;;;;;;;10.75;3.30;;;;;;;;;;4240009;82;28483;-77
2022/04/28 18:24:08;;;;;;;9.78;3.50;;;;;;;;;;4229189;82;28565;-78
2022/04/28 18:30:11;;;;;;;7.03;3.40;;;;;;;;;;4235790;82;28522;-77
2022/04/28 18:48:52;;;;;;;6.47;3.80;;;;;;;;;;4235881;83;28489;-77
2022/04/28 18:54:53;;;;;;;9.40;4.97;;;;;;;;;;4242699;82;28544;-76
2022/04/28 19:00:54;;;;;;;8.23;4.45;;;;;;;;;;4234213;82;28526;-77
2022/04/28 19:06:56;;;;;;;9.08;3.95;;;;;;;;;;4236763;82;28531;-77
2022/04/28 19:12:59;;;;;;;11.05;4.83;;;;;;;;;;4236170;82;28550;-77
2022/04/28 19:19:00;;;;;;;9.58;4.85;;;;;;;;;;4235429;82;28671;-81
2022/04/28 19:25:01;;;;;;;9.25;4.40;;;;;;;;;;4243267;82;28521;-79
2022/04/28 19:31:02;;;;;;;8.50;4.20;;;;;;;;;;4242107;82;28545;-81
2022/04/28 19:37:04;;;;;;;8.50;4.28;;;;;;;;;;4235260;82;28540;-77
2022/04/28 19:43:05;;;;;;;8.33;4.50;;;;;;;;;;4243041;82;28506;-79
2022/04/28 19:49:06;;;;;;;10.15;4.55;;;;;;;;;;4239977;84;28532;-82
2022/04/28 19:55:07;;;;;;;8.10;4.17;;;;;;;;;;4237336;83;28468;-81
2022/04/28 20:01:08;;;;;;;8.18;4.20;;;;;;;;;;4228810;82;28521;-78
2022/04/28 20:07:16;;;;;;;12.93;5.70;;;;;;;;;;4241357;83;28482;-80
2022/04/28 20:13:13;;;;;;;14.90;7.15;;;;;;;;;;4239362;82;28514;-80
2022/04/28 20:19:14;;;;;;;13.03;7.25;;;;;;;;;;4238673;82;28504;-80
2022/04/28 20:25:15;;;;;;;16.90;8.88;;;;;;;;;;4238697;82;28550;-81
2022/04/28 20:31:16;;;;;;;15.25;8.65;;;;;;;;;;4237909;82;28477;-79
2022/04/28 20:37:18;;;;;;;15.65;8.18;;;;;;;;;;4240685;82;28550;-79
2022/04/28 20:43:21;;;;;;;15.08;8.45;;;;;;;;;;4238981;83;28515;-79
2022/04/28 20:49:21;;;;;;;19.95;9.88;;;;;;;;;;4238690;82;28542;-80
2022/04/28 20:55:23;;;;;;;15.80;7.67;;;;;;;;;;4240534;84;28514;-80
2022/04/28 21:01:24;;;;;;;18.95;8.53;;;;;;;;;;4210145;82;28516;-79
2022/04/28 21:07:26;;;;;;;17.20;8.73;;;;;;;;;;4239798;82;28476;-79
2022/04/28 21:13:28;;;;;;;17.60;9.25;;;;;;;;;;4234801;83;28586;-79
2022/04/28 21:19:28;;;;;;;20.35;10.13;;;;;;;;;;4234268;82;28532;-79
2022/04/28 21:25:29;;;;;;;17.75;9.53;;;;;;;;;;4239479;83;28484;-79
2022/04/28 21:31:31;;;;;;;19.07;9.70;;;;;;;;;;4242910;82;28447;-81
2022/04/28 21:37:33;;;;;;;18.15;9.50;;;;;;;;;;4234721;82;28533;-78
2022/04/28 21:43:34;;;;;;;20.35;10.85;;;;;;;;;;4239421;84;28553;-79
2022/04/28 21:49:36;;;;;;;18.80;9.98;;;;;;;;;;4239667;83;28658;-79
2022/04/28 21:55:36;;;;;;;23.55;11.90;;;;;;;;;;4237681;82;28738;-78
2022/04/28 22:01:37;;;;;;;20.57;12.15;;;;;;;;;;4241056;83;28590;-79
2022/04/28 22:13:47;;;;;;;23.25;11.57;;;;;;;;;;4223321;82;28495;-77
2022/04/28 22:19:48;;;;;;;20.65;12.43;;;;;;;;;;4240376;84;28554;-77
2022/04/28 22:25:49;;;;;;;26.37;13.62;;;;;;;;;;4220385;82;28543;-79
2022/04/28 22:31:51;;;;;;;25.85;14.05;;;;;;;;;;4238224;83;28482;-79
2022/04/28 22:37:52;;;;;;;26.25;13.48;;;;;;;;;;4237307;83;28513;-78
2022/04/28 22:43:53;;;;;;;27.80;12.68;;;;;;;;;;4239382;82;28498;-80
2022/04/28 22:49:54;;;;;;;28.12;13.90;;;;;;;;;;4240509;82;28534;-80
2022/04/28 22:55:55;;;;;;;26.95;13.90;;;;;;;;;;4241294;83;28494;-79
2022/04/28 23:01:56;;;;;;;21.40;12.35;;;;;;;;;;4242836;83;28534;-80
2022/04/28 23:07:57;;;;;;;22.10;13.15;;;;;;;;;;4239686;84;28581;-79
2022/04/28 23:13:58;;;;;;;21.80;13.18;;;;;;;;;;4238829;83;28549;-79
2022/04/28 23:19:59;;;;;;;28.25;14.00;;;;;;;;;;4238369;84;28497;-80
2022/04/28 23:26:00;;;;;;;26.45;13.55;;;;;;;;;;4239548;82;28509;-80
2022/04/28 23:32:01;;;;;;;26.25;13.22;;;;;;;;;;4237953;82;28465;-80
2022/04/28 23:44:22;;;;;;;25.77;13.55;;;;;;;;;;4240312;82;28545;-80
2022/04/28 23:50:24;;;;;;;23.35;11.90;;;;;;;;;;4227921;83;28470;-79
2022/04/28 23:56:25;;;;;;;26.50;12.88;;;;;;;;;;4238786;83;28498;-79
